EBLG/LGG METAR and TAF weather

Enter ICAO airport designator
Station Type Date Time Source
EBLG METAR 2020/08/14 16:20 UTC NOAA

EBLG 141620Z 28007KT 250V310 CAVOK 27/14 Q1013 NOSIG


Station Type Date Time Source
EBLG Decoded METAR 2020/08/14 16:20 UTC NOAA

Bierset, Belgium (EBLG) 50-39N 005-27E 178M
Aug 14, 2020 - 12:20 PM EDT / 2020.08.14 1620 UTC
Wind: from the W (280 degrees) at 8 MPH (7 KT) (direction variable):0
Visibility: greater than 7 mile(s):0
Temperature: 80 F (27 C)
Dew Point: 57 F (14 C)
Relative Humidity: 44%
Pressure (altimeter): 29.91 in. Hg (1013 hPa)
ob: EBLG 141620Z 28007KT 250V310 CAVOK 27/14 Q1013 NOSIG
cycle: 16

Station Type Date Time Source
EBLG TAF 2020/08/14 12:27 UTC NOAA

TAF EBLG 141110Z 1412/1518 23008KT 9999 SCT025 PROB30
TEMPO 1412/1422 VRB18G30KT 2000 SHRA TSRAGR PROB30
TEMPO 1502/1507 2500 BR BKN005 PROB30
TEMPO 1511/1518 VRB18G30KT 3000 SHRA TSRA

Example: see airport list